createdAt,value
2023-04-11T00:00:02.610Z,56.16
2023-04-11T00:02:41.287Z,55.62
2023-04-11T00:05:08.827Z,55.62
2023-04-11T00:07:35.892Z,55.85
2023-04-11T00:10:07.263Z,55.71
2023-04-11T00:12:41.075Z,55.64
2023-04-11T00:15:16.377Z,55.72
2023-04-11T00:17:49.215Z,55.79
2023-04-11T00:20:18.548Z,55.87
2023-04-11T00:22:51.106Z,55.58
2023-04-11T00:25:20.103Z,55.14
2023-04-11T00:27:49.336Z,55.18
2023-04-11T00:30:20.992Z,54.79
2023-04-11T00:32:52.620Z,54.72
2023-04-11T00:35:21.986Z,54.69
2023-04-11T00:37:56.442Z,54.87
2023-04-11T00:40:25.405Z,54.60
2023-04-11T00:42:55.703Z,54.32
2023-04-11T00:45:22.747Z,54.44
2023-04-11T00:47:52.940Z,54.61
2023-04-11T00:50:22.508Z,54.33
2023-04-11T00:52:58.779Z,54.18
2023-04-11T00:55:28.993Z,54.24
2023-04-11T00:57:58.183Z,54.14
2023-04-11T01:00:25.937Z,54.17
2023-04-11T01:02:55.385Z,54.15
2023-04-11T01:05:25.476Z,53.96
2023-04-11T01:07:55.048Z,53.91
2023-04-11T01:10:30.910Z,53.79
2023-04-11T01:13:01.656Z,53.91
2023-04-11T01:15:35.588Z,53.66
2023-04-11T01:18:09.220Z,53.90
2023-04-11T01:20:39.941Z,54.07
2023-04-11T01:23:08.773Z,54.01
2023-04-11T01:25:36.131Z,54.07
2023-04-11T01:28:08.886Z,54.27
2023-04-11T01:30:38.066Z,54.51
2023-04-11T01:33:07.497Z,54.14
2023-04-11T01:35:37.060Z,54.23
2023-04-11T01:38:09.015Z,54.58
2023-04-11T01:40:39.328Z,54.47
2023-04-11T01:43:11.430Z,54.51
2023-04-11T01:45:41.184Z,54.87
2023-04-11T01:48:10.406Z,55.27
2023-04-11T01:50:42.041Z,54.75
2023-04-11T01:53:14.184Z,54.13
2023-04-11T01:55:40.974Z,54.27
2023-04-11T01:58:07.794Z,54.36
2023-04-11T02:00:37.157Z,54.54
2023-04-11T02:03:06.431Z,54.57
2023-04-11T02:05:36.172Z,54.82
2023-04-11T02:08:06.174Z,54.79
2023-04-11T02:10:37.397Z,54.75
2023-04-11T02:13:04.486Z,54.67
2023-04-11T02:15:40.013Z,54.59
2023-04-11T02:18:11.808Z,54.74
2023-04-11T02:20:43.520Z,54.90
2023-04-11T02:23:12.962Z,54.58
2023-04-11T02:25:44.487Z,54.42
2023-04-11T02:28:11.291Z,54.44
2023-04-11T02:30:40.522Z,54.37
2023-04-11T02:33:09.784Z,54.01
2023-04-11T02:35:41.343Z,53.88
2023-04-11T02:38:08.144Z,53.59
2023-04-11T02:40:34.829Z,53.41
2023-04-11T02:43:11.790Z,52.79
2023-04-11T02:45:42.895Z,52.99
2023-04-11T02:48:11.395Z,53.22
2023-04-11T02:50:43.399Z,51.70
2023-04-11T02:53:12.690Z,51.72
2023-04-11T02:55:51.908Z,51.37
2023-04-11T02:58:21.314Z,50.60
2023-04-11T03:00:51.847Z,50.42
2023-04-11T03:03:23.281Z,48.46
2023-04-11T03:05:52.687Z,48.44
2023-04-11T03:08:25.335Z,48.72
2023-04-11T03:10:59.481Z,47.91
2023-04-11T03:13:34.052Z,48.42
2023-04-11T03:16:06.987Z,47.97
2023-04-11T03:18:36.197Z,48.15
2023-04-11T03:21:08.290Z,47.55
2023-04-11T03:23:40.572Z,48.51
2023-04-11T03:26:07.682Z,48.12
2023-04-11T03:28:37.213Z,47.92
2023-04-11T03:31:09.877Z,48.00
2023-04-11T03:33:39.856Z,47.53
2023-04-11T03:36:13.747Z,47.43
2023-04-11T03:38:41.466Z,47.58
2023-04-11T03:41:10.809Z,47.46
2023-04-11T03:43:40.011Z,46.10
2023-04-11T03:46:09.633Z,46.82
2023-04-11T03:48:43.026Z,45.70
2023-04-11T03:51:09.978Z,46.16
2023-04-11T03:53:45.658Z,46.21
2023-04-11T03:56:32.659Z,45.82
2023-04-11T03:59:04.372Z,45.31
2023-04-11T04:01:47.078Z,45.47
2023-04-11T04:04:16.920Z,45.07
2023-04-11T04:06:51.316Z,45.72
2023-04-11T04:09:23.527Z,45.78
2023-04-11T04:11:57.671Z,45.37
2023-04-11T04:14:34.997Z,45.39
2023-04-11T04:17:02.050Z,44.66
2023-04-11T04:19:32.215Z,45.70
2023-04-11T04:22:02.192Z,45.55
2023-04-11T04:24:39.721Z,44.31
2023-04-11T04:27:18.468Z,45.31
2023-04-11T04:29:58.045Z,44.96
2023-04-11T04:32:48.873Z,45.09
2023-04-11T04:35:20.971Z,44.72
2023-04-11T04:37:51.031Z,45.23
2023-04-11T04:40:33.204Z,44.91
2023-04-11T04:43:09.247Z,46.17
2023-04-11T04:45:44.889Z,46.45
2023-04-11T04:48:20.974Z,45.96
2023-04-11T04:50:52.640Z,46.74
2023-04-11T04:53:22.145Z,46.83
2023-04-11T04:55:56.591Z,47.41
2023-04-11T04:58:27.616Z,48.10
2023-04-11T05:00:56.276Z,48.69
2023-04-11T05:03:34.793Z,48.99
2023-04-11T05:06:11.737Z,49.08
2023-04-11T05:08:39.793Z,48.87
2023-04-11T05:11:09.283Z,49.12
2023-04-11T05:13:39.095Z,49.19
2023-04-11T05:16:11.256Z,49.58
2023-04-11T05:18:38.102Z,50.91
2023-04-11T05:21:09.865Z,52.04
2023-04-11T05:23:43.789Z,53.16
2023-04-11T05:26:15.679Z,53.93
2023-04-11T05:28:42.739Z,57.53
2023-04-11T05:31:17.170Z,58.67
2023-04-11T05:33:46.463Z,58.92
2023-04-11T05:36:18.275Z,58.94
2023-04-11T05:38:50.140Z,58.12
2023-04-11T05:41:19.216Z,58.35
2023-04-11T05:43:48.595Z,57.66
2023-04-11T05:46:20.005Z,57.70
2023-04-11T05:48:54.605Z,57.67
2023-04-11T05:51:26.707Z,57.90
2023-04-11T05:53:58.534Z,58.02
2023-04-11T05:56:25.888Z,58.18
2023-04-11T05:58:52.705Z,58.52
2023-04-11T06:01:24.051Z,58.97
2023-04-11T06:03:58.483Z,60.50
2023-04-11T06:06:28.192Z,60.94
2023-04-11T06:08:57.462Z,63.00
2023-04-11T06:11:28.224Z,62.61
2023-04-11T06:13:59.367Z,62.29
2023-04-11T06:16:32.762Z,63.30
2023-04-11T06:19:01.917Z,63.61
2023-04-11T06:21:32.372Z,63.72
2023-04-11T06:24:08.482Z,63.65
2023-04-11T06:26:40.065Z,63.59
2023-04-11T06:29:07.733Z,63.53
2023-04-11T06:31:37.063Z,63.16
2023-04-11T06:34:11.116Z,62.82
2023-04-11T06:36:42.827Z,64.35
2023-04-11T06:39:16.820Z,63.69
2023-04-11T06:41:43.676Z,63.73
2023-04-11T06:44:10.987Z,63.54
2023-04-11T06:46:37.790Z,63.46
2023-04-11T06:49:07.474Z,64.35
2023-04-11T06:51:36.972Z,66.07
2023-04-11T06:54:08.563Z,66.51
2023-04-11T06:56:42.543Z,67.33
2023-04-11T06:59:19.680Z,68.72
2023-04-11T07:01:49.990Z,70.00
2023-04-11T07:04:22.199Z,70.88
2023-04-11T07:06:52.225Z,71.33
2023-04-11T07:09:21.539Z,70.90
2023-04-11T07:11:51.029Z,71.29
2023-04-11T07:14:20.106Z,71.42
2023-04-11T07:16:49.329Z,73.82
2023-04-11T07:19:23.990Z,74.36
2023-04-11T07:21:53.347Z,74.76
2023-04-11T07:24:26.216Z,75.05
2023-04-11T07:26:58.623Z,74.33
2023-04-11T07:29:28.754Z,75.37
2023-04-11T07:32:00.213Z,75.49
2023-04-11T07:34:29.560Z,75.97
2023-04-11T07:37:01.301Z,75.34
2023-04-11T07:39:28.274Z,76.71
2023-04-11T07:41:57.376Z,75.71
2023-04-11T07:44:24.194Z,75.98
2023-04-11T07:46:53.581Z,76.72
2023-04-11T07:49:20.378Z,75.73
2023-04-11T07:51:51.949Z,75.62
2023-04-11T07:54:21.003Z,75.37
2023-04-11T07:56:52.961Z,75.10
2023-04-11T07:59:22.285Z,75.15
2023-04-11T08:01:57.643Z,75.01
2023-04-11T08:04:27.192Z,75.07
2023-04-11T08:07:00.886Z,74.81
2023-04-11T08:09:30.065Z,74.52
2023-04-11T08:11:59.768Z,74.50
2023-04-11T08:14:26.545Z,74.72
2023-04-11T08:16:56.258Z,74.41
2023-04-11T08:19:23.121Z,74.01
2023-04-11T08:21:53.230Z,73.96
2023-04-11T08:24:22.383Z,74.22
2023-04-11T08:26:56.751Z,73.39
2023-04-11T08:29:28.319Z,72.83
2023-04-11T08:32:00.747Z,72.58
2023-04-11T08:34:32.572Z,72.23
2023-04-11T08:37:01.631Z,71.35
2023-04-11T08:39:31.395Z,70.63
2023-04-11T08:42:06.190Z,71.01
2023-04-11T08:44:33.416Z,70.80
2023-04-11T08:47:03.310Z,70.53
2023-04-11T08:49:32.318Z,70.45
2023-04-11T08:52:00.176Z,69.85
2023-04-11T08:54:30.455Z,69.38
2023-04-11T08:56:59.630Z,69.80
2023-04-11T08:59:27.439Z,69.99
2023-04-11T09:02:08.701Z,70.32
2023-04-11T09:04:41.791Z,70.55
2023-04-11T09:07:08.688Z,70.23
2023-04-11T09:09:39.977Z,69.92
2023-04-11T09:12:12.125Z,69.04
2023-04-11T09:14:41.449Z,68.67
2023-04-11T09:17:16.774Z,68.48
2023-04-11T09:19:49.322Z,68.15
2023-04-11T09:22:37.865Z,66.85
2023-04-11T09:25:09.493Z,67.44
2023-04-11T09:27:38.737Z,67.28
2023-04-11T09:30:49.286Z,67.44
2023-04-11T09:33:23.290Z,67.51
2023-04-11T09:35:57.089Z,66.75
2023-04-11T09:38:37.004Z,65.43
2023-04-11T09:41:09.072Z,64.58
2023-04-11T09:43:49.588Z,65.91
2023-04-11T09:46:22.312Z,64.76
2023-04-11T09:48:52.778Z,65.89
2023-04-11T09:53:57.929Z,66.01
2023-04-11T09:56:30.657Z,65.28
2023-04-11T09:59:03.336Z,63.78
2023-04-11T10:01:36.044Z,64.49
2023-04-11T10:04:05.156Z,64.14
2023-04-11T10:07:02.358Z,63.44
2023-04-11T10:09:33.574Z,63.86
2023-04-11T10:12:06.198Z,64.31
2023-04-11T10:14:41.876Z,64.19
2023-04-11T10:17:23.608Z,63.64
2023-04-11T10:19:58.890Z,64.53
2023-04-11T10:22:44.028Z,64.14
2023-04-11T10:25:23.875Z,63.66
2023-04-11T10:28:01.721Z,63.46
2023-04-11T10:30:39.497Z,63.46
2023-04-11T10:33:21.518Z,63.77
2023-04-11T10:35:58.729Z,61.53
2023-04-11T10:38:49.188Z,62.27
2023-04-11T10:41:25.647Z,63.91
2023-04-11T10:44:14.712Z,61.40
2023-04-11T10:46:54.968Z,62.67
2023-04-11T10:49:39.504Z,63.21
2023-04-11T10:52:23.802Z,62.70
2023-04-11T10:55:13.893Z,62.43
2023-04-11T10:58:08.586Z,61.61
2023-04-11T11:00:50.836Z,61.10
2023-04-11T11:03:25.832Z,61.60
2023-04-11T11:06:04.088Z,61.52
2023-04-11T11:08:38.532Z,60.99
2023-04-11T11:11:07.024Z,60.62
2023-04-11T11:13:43.703Z,60.80
2023-04-11T11:16:22.831Z,61.21
2023-04-11T11:18:59.804Z,60.39
2023-04-11T11:21:34.937Z,60.84
2023-04-11T11:24:07.733Z,59.87
2023-04-11T11:26:43.764Z,57.89
2023-04-11T11:29:13.474Z,57.10
2023-04-11T11:31:45.793Z,56.83
2023-04-11T11:36:47.822Z,57.80
2023-04-11T11:39:21.151Z,57.73
2023-04-11T11:41:52.365Z,57.80
2023-04-11T11:44:25.534Z,57.56
2023-04-11T11:47:12.881Z,58.33
2023-04-11T11:49:51.924Z,59.06
2023-04-11T11:52:43.679Z,58.89
2023-04-11T11:55:18.657Z,58.50
2023-04-11T11:57:52.013Z,58.81
2023-04-11T12:00:31.450Z,59.41
2023-04-11T12:03:06.796Z,58.89
2023-04-11T12:05:36.719Z,57.78
2023-04-11T12:08:10.660Z,58.65
2023-04-11T12:10:40.592Z,57.89
2023-04-11T12:13:25.679Z,55.07
2023-04-11T12:15:57.231Z,55.95
2023-04-11T12:18:25.469Z,56.78
2023-04-11T12:20:58.724Z,55.62
2023-04-11T12:23:30.329Z,57.31
2023-04-11T12:26:02.929Z,56.97
2023-04-11T12:28:34.428Z,57.59
2023-04-11T12:31:03.704Z,56.85
2023-04-11T12:33:32.843Z,58.09
2023-04-11T12:36:02.719Z,57.52
2023-04-11T12:38:29.500Z,52.07
2023-04-11T12:41:19.613Z,53.38
2023-04-11T12:43:49.594Z,51.96
2023-04-11T12:46:19.503Z,52.92
2023-04-11T12:48:51.920Z,52.50
2023-04-11T12:51:21.078Z,52.47
2023-04-11T12:53:52.946Z,51.62
2023-04-11T12:56:19.891Z,52.42
2023-04-11T12:58:51.529Z,53.61
2023-04-11T13:01:23.769Z,53.97
2023-04-11T13:03:50.698Z,54.58
2023-04-11T13:06:23.454Z,53.79
2023-04-11T13:08:56.738Z,54.39
2023-04-11T13:11:30.599Z,53.18
2023-04-11T13:14:02.048Z,50.58
2023-04-11T13:16:34.313Z,52.84
2023-04-11T13:19:06.049Z,52.71
2023-04-11T13:21:37.441Z,51.09
2023-04-11T13:24:04.252Z,48.91
2023-04-11T13:26:31.114Z,49.87
2023-04-11T13:29:00.649Z,51.22
2023-04-11T13:31:32.790Z,50.61
2023-04-11T13:34:04.071Z,51.38
2023-04-11T13:36:33.281Z,52.04
2023-04-11T13:39:02.577Z,52.47
2023-04-11T13:41:29.424Z,52.52
2023-04-11T13:43:58.627Z,51.46
2023-04-11T13:46:30.271Z,51.92
2023-04-11T13:49:00.402Z,52.35
2023-04-11T13:51:34.571Z,52.56
2023-04-11T13:54:03.726Z,51.98
2023-04-11T13:56:32.887Z,51.59
2023-04-11T13:59:02.180Z,51.07
2023-04-11T14:01:33.965Z,51.58
2023-04-11T14:04:07.045Z,51.49
2023-04-11T14:06:39.378Z,50.86
2023-04-11T14:09:08.724Z,51.97
2023-04-11T14:11:37.780Z,51.15
2023-04-11T14:14:09.482Z,51.50
2023-04-11T14:16:41.199Z,50.95
2023-04-11T14:19:08.001Z,50.29
2023-04-11T14:21:37.030Z,50.88
2023-04-11T14:24:06.296Z,50.74
2023-04-11T14:26:42.648Z,51.64
2023-04-11T14:29:12.625Z,51.49
2023-04-11T14:31:41.804Z,51.77
2023-04-11T14:34:13.240Z,52.13
2023-04-11T14:36:42.365Z,52.57
2023-04-11T14:39:11.389Z,52.98
2023-04-11T14:41:43.107Z,53.35
2023-04-11T14:44:12.675Z,54.29
2023-04-11T14:46:42.156Z,55.08
2023-04-11T14:49:11.138Z,56.31
2023-04-11T14:51:37.965Z,58.17
2023-04-11T14:54:07.501Z,58.00
2023-04-11T14:56:39.072Z,58.68
2023-04-11T14:59:11.654Z,58.44
2023-04-11T15:01:39.145Z,59.53
2023-04-11T15:04:13.480Z,60.11
2023-04-11T15:06:45.190Z,60.50
2023-04-11T15:09:21.194Z,60.81
2023-04-11T15:11:50.239Z,61.19
2023-04-11T15:14:29.641Z,62.07
2023-04-11T15:17:03.234Z,62.08
2023-04-11T15:19:32.395Z,62.06
2023-04-11T15:22:02.030Z,61.69
2023-04-11T15:24:28.788Z,61.98
2023-04-11T15:26:58.329Z,61.68
2023-04-11T15:29:25.646Z,61.92
2023-04-11T15:31:54.813Z,61.24
2023-04-11T15:34:27.221Z,61.22
2023-04-11T15:36:57.055Z,60.73
2023-04-11T15:39:26.253Z,60.88
2023-04-11T15:41:57.634Z,60.87
2023-04-11T15:44:26.985Z,60.88
2023-04-11T15:46:56.299Z,60.63
2023-04-11T15:49:25.827Z,60.88
2023-04-11T15:51:57.193Z,60.76
2023-04-11T15:54:26.203Z,60.43
2023-04-11T15:57:05.481Z,60.38
2023-04-11T15:59:41.720Z,60.68
2023-04-11T16:02:15.487Z,60.87
2023-04-11T16:04:54.218Z,61.22
2023-04-11T16:07:23.726Z,60.88
2023-04-11T16:09:52.781Z,61.03
2023-04-11T16:12:26.934Z,60.25
2023-04-11T16:14:56.425Z,59.56
2023-04-11T16:17:23.195Z,59.68
2023-04-11T16:19:55.113Z,59.45
2023-04-11T16:22:24.982Z,59.32
2023-04-11T16:24:56.412Z,59.50
2023-04-11T16:27:33.454Z,59.00
2023-04-11T16:30:09.850Z,59.31
2023-04-11T16:32:39.279Z,59.50
2023-04-11T16:35:15.653Z,59.80
2023-04-11T16:37:44.988Z,59.76
2023-04-11T16:40:14.522Z,60.03
2023-04-11T16:42:43.545Z,60.28
2023-04-11T16:45:13.375Z,61.05
2023-04-11T16:47:44.889Z,60.33
2023-04-11T16:50:11.978Z,60.54
2023-04-11T16:52:43.814Z,60.37
2023-04-11T16:55:13.097Z,60.50
2023-04-11T16:57:42.137Z,60.77
2023-04-11T17:00:16.030Z,60.87
2023-04-11T17:02:45.143Z,60.79
2023-04-11T17:05:12.180Z,61.05
2023-04-11T17:07:44.006Z,62.57
2023-04-11T17:10:11.600Z,62.55
2023-04-11T17:12:41.439Z,62.11
2023-04-11T17:15:16.910Z,62.51
2023-04-11T17:17:46.205Z,62.78
2023-04-11T17:20:16.620Z,62.25
2023-04-11T17:22:47.087Z,62.53
2023-04-11T17:25:14.036Z,62.32
2023-04-11T17:27:41.507Z,62.42
2023-04-11T17:30:12.326Z,62.06
2023-04-11T17:32:41.809Z,61.98
2023-04-11T17:35:13.624Z,62.28
2023-04-11T17:37:40.477Z,62.09
2023-04-11T17:40:14.527Z,62.42
2023-04-11T17:42:44.015Z,62.37
2023-04-11T17:47:42.983Z,62.42
2023-04-11T17:50:17.390Z,62.43
2023-04-11T17:52:50.241Z,62.43
2023-04-11T17:55:19.948Z,62.70
2023-04-11T17:57:54.090Z,62.58
2023-04-11T18:00:25.972Z,62.71
2023-04-11T18:03:03.101Z,63.01
2023-04-11T18:05:33.047Z,63.13
2023-04-11T18:08:03.545Z,62.80
2023-04-11T18:10:33.204Z,62.59
2023-04-11T18:13:03.468Z,62.84
2023-04-11T18:15:33.313Z,62.30
2023-04-11T18:18:05.436Z,62.48
2023-04-11T18:20:36.981Z,62.57
2023-04-11T18:23:03.918Z,62.73
2023-04-11T18:25:30.961Z,62.63
2023-04-11T18:28:00.343Z,62.57
2023-04-11T18:30:29.617Z,62.54
2023-04-11T18:33:09.679Z,62.76
2023-04-11T18:35:38.871Z,62.71
2023-04-11T18:38:08.262Z,62.69
2023-04-11T18:40:37.515Z,62.54
2023-04-11T18:43:04.554Z,62.72
2023-04-11T18:45:39.600Z,62.53
2023-04-11T18:48:10.579Z,62.59
2023-04-11T18:50:44.796Z,62.43
2023-04-11T18:53:14.310Z,62.45
2023-04-11T18:55:43.728Z,62.48
2023-04-11T18:58:15.740Z,62.35
2023-04-11T19:00:49.677Z,62.65
2023-04-11T19:03:19.177Z,62.59
2023-04-11T19:05:46.842Z,62.54
2023-04-11T19:08:19.087Z,62.49
2023-04-11T19:10:50.943Z,62.43
2023-04-11T19:13:22.535Z,62.39
2023-04-11T19:15:54.512Z,62.46
2023-04-11T19:18:26.144Z,62.38
2023-04-11T19:20:55.922Z,62.26
2023-04-11T19:23:28.073Z,62.24
2023-04-11T19:25:55.075Z,62.13
2023-04-11T19:28:21.890Z,62.39
2023-04-11T19:30:53.588Z,62.23
2023-04-11T19:33:20.805Z,62.13
2023-04-11T19:35:52.397Z,62.03
2023-04-11T19:38:22.090Z,62.18
2023-04-11T19:40:48.986Z,62.10
2023-04-11T19:43:18.137Z,62.38
2023-04-11T19:45:48.590Z,62.27
2023-04-11T19:48:19.990Z,62.31
2023-04-11T19:50:49.196Z,62.17
2023-04-11T19:53:16.204Z,62.36
2023-04-11T19:55:45.217Z,62.38
2023-04-11T19:58:18.810Z,62.43
2023-04-11T20:00:47.889Z,62.57
2023-04-11T20:03:18.043Z,62.54
2023-04-11T20:05:45.944Z,62.70
2023-04-11T20:08:15.597Z,62.73
2023-04-11T20:10:44.661Z,62.60
2023-04-11T20:13:24.861Z,62.84
2023-04-11T20:15:57.067Z,62.69
2023-04-11T20:18:28.972Z,62.84
2023-04-11T20:20:58.024Z,62.91
2023-04-11T20:23:31.226Z,62.73
2023-04-11T20:25:58.214Z,62.57
2023-04-11T20:28:27.547Z,62.72
2023-04-11T20:30:59.421Z,62.54
2023-04-11T20:33:26.812Z,62.63
2023-04-11T20:35:58.721Z,62.60
2023-04-11T20:38:26.526Z,62.77
2023-04-11T20:40:54.120Z,62.80
2023-04-11T20:43:25.331Z,62.61
2023-04-11T20:45:57.660Z,62.59
2023-04-11T20:48:32.237Z,62.46
2023-04-11T20:51:02.012Z,62.15
2023-04-11T20:53:34.304Z,62.39
2023-04-11T20:56:04.625Z,62.45
2023-04-11T20:58:31.388Z,62.37
2023-04-11T21:00:58.236Z,62.32
2023-04-11T21:03:31.300Z,61.99
2023-04-11T21:06:04.669Z,62.30
2023-04-11T21:08:31.626Z,62.04
2023-04-11T21:11:02.166Z,62.07
2023-04-11T21:13:31.512Z,62.15
2023-04-11T21:16:05.864Z,62.18
2023-04-11T21:18:32.669Z,62.34
2023-04-11T21:21:07.761Z,62.44
2023-04-11T21:23:37.600Z,62.06
2023-04-11T21:26:06.802Z,62.15
2023-04-11T21:28:38.531Z,62.36
2023-04-11T21:31:10.211Z,62.22
2023-04-11T21:33:36.999Z,62.18
2023-04-11T21:36:09.323Z,62.78
2023-04-11T21:38:40.659Z,62.50
2023-04-11T21:41:12.159Z,62.49
2023-04-11T21:43:41.248Z,62.39
2023-04-11T21:46:12.434Z,62.47
2023-04-11T21:48:43.248Z,62.21
2023-04-11T21:51:17.954Z,62.21
2023-04-11T21:53:44.769Z,62.09
2023-04-11T21:56:16.446Z,62.29
2023-04-11T21:58:45.562Z,62.54
2023-04-11T22:01:12.953Z,62.43
2023-04-11T22:03:43.208Z,62.55
2023-04-11T22:06:12.681Z,62.90
2023-04-11T22:08:50.838Z,62.94
2023-04-11T22:11:22.206Z,62.92
2023-04-11T22:13:54.551Z,63.18
2023-04-11T22:16:30.718Z,63.42
2023-04-11T22:19:02.584Z,63.52
2023-04-11T22:21:32.661Z,63.53
2023-04-11T22:24:04.593Z,63.26
2023-04-11T22:26:34.382Z,63.51
2023-04-11T22:29:09.254Z,63.55
2023-04-11T22:31:39.049Z,63.69
2023-04-11T22:34:10.689Z,64.10
2023-04-11T22:36:40.325Z,64.27
2023-04-11T22:39:09.598Z,64.86
2023-04-11T22:41:38.847Z,64.90
2023-04-11T22:44:08.438Z,65.10
2023-04-11T22:46:38.775Z,65.27
2023-04-11T22:49:09.816Z,65.33
2023-04-11T22:51:41.384Z,65.04
2023-04-11T22:54:13.605Z,64.74
2023-04-11T22:56:40.401Z,64.68
2023-04-11T22:59:09.700Z,64.39
2023-04-11T23:01:36.573Z,64.39
2023-04-11T23:04:07.188Z,64.53
2023-04-11T23:06:39.070Z,64.55
2023-04-11T23:09:10.685Z,64.93
2023-04-11T23:11:42.037Z,65.14
2023-04-11T23:14:08.978Z,65.30
2023-04-11T23:16:38.069Z,65.43
2023-04-11T23:19:07.206Z,65.62
2023-04-11T23:21:37.995Z,65.71
2023-04-11T23:24:07.286Z,65.50
2023-04-11T23:26:37.248Z,65.41
2023-04-11T23:29:06.244Z,65.74
2023-04-11T23:31:35.553Z,65.44
2023-04-11T23:34:02.336Z,65.53
2023-04-11T23:36:32.933Z,65.89
2023-04-11T23:39:02.367Z,65.81
2023-04-11T23:41:35.947Z,66.04
2023-04-11T23:44:09.402Z,65.78
2023-04-11T23:46:39.440Z,65.75
2023-04-11T23:49:10.711Z,65.98
2023-04-11T23:51:37.918Z,65.72
2023-04-11T23:54:07.913Z,65.68
2023-04-11T23:56:34.689Z,65.84
2023-04-11T23:59:03.722Z,65.72
